sensor_id;sensor_type;location;lat;lon;timestamp;temperature;humidity
71128;SHT30;59249;59.736;30.568;2023-02-02T00:00:26;0.90;85.33
71128;SHT30;59249;59.736;30.568;2023-02-02T00:02:55;0.85;85.40
71128;SHT30;59249;59.736;30.568;2023-02-02T00:05:24;0.92;85.41
71128;SHT30;59249;59.736;30.568;2023-02-02T00:07:54;0.88;85.40
71128;SHT30;59249;59.736;30.568;2023-02-02T00:10:23;0.88;85.51
71128;SHT30;59249;59.736;30.568;2023-02-02T00:12:52;0.89;85.63
71128;SHT30;59249;59.736;30.568;2023-02-02T00:15:24;0.92;85.59
71128;SHT30;59249;59.736;30.568;2023-02-02T00:17:52;0.97;85.49
71128;SHT30;59249;59.736;30.568;2023-02-02T00:20:21;0.95;85.53
71128;SHT30;59249;59.736;30.568;2023-02-02T00:22:51;0.91;85.43
71128;SHT30;59249;59.736;30.568;2023-02-02T00:25:21;0.91;85.42
71128;SHT30;59249;59.736;30.568;2023-02-02T00:27:50;0.87;85.44
71128;SHT30;59249;59.736;30.568;2023-02-02T00:30:20;0.99;85.44
71128;SHT30;59249;59.736;30.568;2023-02-02T00:32:49;0.92;85.61
71128;SHT30;59249;59.736;30.568;2023-02-02T00:35:19;1.01;85.55
71128;SHT30;59249;59.736;30.568;2023-02-02T00:37:49;1.07;85.47
71128;SHT30;59249;59.736;30.568;2023-02-02T00:40:23;1.04;85.45
71128;SHT30;59249;59.736;30.568;2023-02-02T00:42:51;1.03;85.42
71128;SHT30;59249;59.736;30.568;2023-02-02T00:45:21;1.02;85.42
71128;SHT30;59249;59.736;30.568;2023-02-02T00:47:51;1.01;85.56
71128;SHT30;59249;59.736;30.568;2023-02-02T00:50:23;1.01;85.53
71128;SHT30;59249;59.736;30.568;2023-02-02T00:52:57;0.89;85.63
71128;SHT30;59249;59.736;30.568;2023-02-02T00:55:29;0.93;85.78
71128;SHT30;59249;59.736;30.568;2023-02-02T00:58:01;0.90;85.72
71128;SHT30;59249;59.736;30.568;2023-02-02T01:00:30;1.01;85.68
71128;SHT30;59249;59.736;30.568;2023-02-02T01:03:01;0.97;85.69
71128;SHT30;59249;59.736;30.568;2023-02-02T01:05:31;0.92;85.84
71128;SHT30;59249;59.736;30.568;2023-02-02T01:07:59;0.95;85.96
71128;SHT30;59249;59.736;30.568;2023-02-02T01:10:30;0.90;86.03
71128;SHT30;59249;59.736;30.568;2023-02-02T01:13:00;0.92;86.15
71128;SHT30;59249;59.736;30.568;2023-02-02T01:15:31;0.95;86.12
71128;SHT30;59249;59.736;30.568;2023-02-02T01:18:06;0.89;86.13
71128;SHT30;59249;59.736;30.568;2023-02-02T01:20:35;0.95;86.24
71128;SHT30;59249;59.736;30.568;2023-02-02T01:23:04;0.81;86.24
71128;SHT30;59249;59.736;30.568;2023-02-02T01:25:35;1.01;86.32
71128;SHT30;59249;59.736;30.568;2023-02-02T01:28:05;0.88;86.35
71128;SHT30;59249;59.736;30.568;2023-02-02T01:30:34;0.91;86.34
71128;SHT30;59249;59.736;30.568;2023-02-02T01:33:03;0.87;86.35
71128;SHT30;59249;59.736;30.568;2023-02-02T01:35:31;0.88;86.08
71128;SHT30;59249;59.736;30.568;2023-02-02T01:38:00;0.89;86.49
71128;SHT30;59249;59.736;30.568;2023-02-02T01:40:29;0.85;86.40
71128;SHT30;59249;59.736;30.568;2023-02-02T01:42:59;0.79;86.51
71128;SHT30;59249;59.736;30.568;2023-02-02T01:45:28;0.77;86.37
71128;SHT30;59249;59.736;30.568;2023-02-02T01:47:59;0.83;86.59
71128;SHT30;59249;59.736;30.568;2023-02-02T01:50:31;0.87;86.57
71128;SHT30;59249;59.736;30.568;2023-02-02T01:53:02;0.90;86.46
71128;SHT30;59249;59.736;30.568;2023-02-02T01:55:34;0.89;86.37
71128;SHT30;59249;59.736;30.568;2023-02-02T01:58:08;0.92;86.47
71128;SHT30;59249;59.736;30.568;2023-02-02T02:00:40;0.92;86.44
71128;SHT30;59249;59.736;30.568;2023-02-02T02:03:16;0.93;86.30
71128;SHT30;59249;59.736;30.568;2023-02-02T02:05:51;0.89;86.28
71128;SHT30;59249;59.736;30.568;2023-02-02T02:08:26;0.92;86.31
71128;SHT30;59249;59.736;30.568;2023-02-02T02:10:56;0.90;86.34
71128;SHT30;59249;59.736;30.568;2023-02-02T02:13:29;0.87;86.37
71128;SHT30;59249;59.736;30.568;2023-02-02T02:16:29;0.95;86.49
71128;SHT30;59249;59.736;30.568;2023-02-02T02:22:07;0.83;86.47
71128;SHT30;59249;59.736;30.568;2023-02-02T02:25:26;0.87;86.39
71128;SHT30;59249;59.736;30.568;2023-02-02T02:28:57;0.86;86.29
71128;SHT30;59249;59.736;30.568;2023-02-02T02:32:21;0.84;86.39
71128;SHT30;59249;59.736;30.568;2023-02-02T02:35:04;0.85;86.27
71128;SHT30;59249;59.736;30.568;2023-02-02T02:37:44;0.90;86.11
71128;SHT30;59249;59.736;30.568;2023-02-02T02:40:21;0.81;86.52
71128;SHT30;59249;59.736;30.568;2023-02-02T02:42:56;0.82;86.44
71128;SHT30;59249;59.736;30.568;2023-02-02T02:45:28;0.83;86.74
71128;SHT30;59249;59.736;30.568;2023-02-02T02:47:58;0.83;86.63
71128;SHT30;59249;59.736;30.568;2023-02-02T02:50:28;0.87;86.53
71128;SHT30;59249;59.736;30.568;2023-02-02T02:53:05;0.75;86.58
71128;SHT30;59249;59.736;30.568;2023-02-02T02:55:45;0.90;86.49
71128;SHT30;59249;59.736;30.568;2023-02-02T02:58:24;0.90;86.52
71128;SHT30;59249;59.736;30.568;2023-02-02T03:01:07;0.95;86.28
71128;SHT30;59249;59.736;30.568;2023-02-02T03:04:04;0.89;86.13
71128;SHT30;59249;59.736;30.568;2023-02-02T03:06:41;0.92;86.23
71128;SHT30;59249;59.736;30.568;2023-02-02T03:09:16;0.87;86.12
71128;SHT30;59249;59.736;30.568;2023-02-02T03:11:46;0.92;86.12
71128;SHT30;59249;59.736;30.568;2023-02-02T03:14:15;0.87;86.01
71128;SHT30;59249;59.736;30.568;2023-02-02T03:16:43;0.97;86.00
71128;SHT30;59249;59.736;30.568;2023-02-02T03:19:13;0.97;85.90
71128;SHT30;59249;59.736;30.568;2023-02-02T03:21:42;0.88;85.94
71128;SHT30;59249;59.736;30.568;2023-02-02T03:24:11;1.03;85.84
71128;SHT30;59249;59.736;30.568;2023-02-02T03:26:39;1.02;85.71
71128;SHT30;59249;59.736;30.568;2023-02-02T03:29:08;0.97;85.81
71128;SHT30;59249;59.736;30.568;2023-02-02T03:31:37;0.91;85.66
71128;SHT30;59249;59.736;30.568;2023-02-02T03:34:06;1.03;85.55
71128;SHT30;59249;59.736;30.568;2023-02-02T03:36:36;0.97;85.64
71128;SHT30;59249;59.736;30.568;2023-02-02T03:39:05;0.99;85.61
71128;SHT30;59249;59.736;30.568;2023-02-02T03:41:34;0.95;85.35
71128;SHT30;59249;59.736;30.568;2023-02-02T03:44:04;0.95;85.54
71128;SHT30;59249;59.736;30.568;2023-02-02T03:46:37;0.95;85.58
71128;SHT30;59249;59.736;30.568;2023-02-02T03:49:06;1.01;85.48
71128;SHT30;59249;59.736;30.568;2023-02-02T03:51:37;0.92;85.42
71128;SHT30;59249;59.736;30.568;2023-02-02T03:54:06;1.03;85.51
71128;SHT30;59249;59.736;30.568;2023-02-02T03:56:34;1.12;85.49
71128;SHT30;59249;59.736;30.568;2023-02-02T03:59:03;1.00;85.42
71128;SHT30;59249;59.736;30.568;2023-02-02T04:01:32;0.95;85.55
71128;SHT30;59249;59.736;30.568;2023-02-02T04:04:04;0.88;85.72
71128;SHT30;59249;59.736;30.568;2023-02-02T04:06:33;0.92;85.72
71128;SHT30;59249;59.736;30.568;2023-02-02T04:09:04;0.95;85.64
71128;SHT30;59249;59.736;30.568;2023-02-02T04:11:34;0.88;85.71
71128;SHT30;59249;59.736;30.568;2023-02-02T04:14:05;0.91;85.79
71128;SHT30;59249;59.736;30.568;2023-02-02T04:16:36;0.83;85.55
71128;SHT30;59249;59.736;30.568;2023-02-02T04:19:08;0.81;85.73
71128;SHT30;59249;59.736;30.568;2023-02-02T04:21:39;0.76;85.94
71128;SHT30;59249;59.736;30.568;2023-02-02T04:24:14;0.90;85.78
71128;SHT30;59249;59.736;30.568;2023-02-02T04:26:43;0.85;85.77
71128;SHT30;59249;59.736;30.568;2023-02-02T04:29:12;0.90;85.69
71128;SHT30;59249;59.736;30.568;2023-02-02T04:31:41;0.88;85.68
71128;SHT30;59249;59.736;30.568;2023-02-02T04:34:09;0.79;85.67
71128;SHT30;59249;59.736;30.568;2023-02-02T04:36:40;0.88;85.77
71128;SHT30;59249;59.736;30.568;2023-02-02T04:39:12;0.75;85.79
71128;SHT30;59249;59.736;30.568;2023-02-02T04:41:53;0.73;85.75
71128;SHT30;59249;59.736;30.568;2023-02-02T04:44:22;0.72;85.89
71128;SHT30;59249;59.736;30.568;2023-02-02T04:46:54;0.76;86.10
71128;SHT30;59249;59.736;30.568;2023-02-02T04:49:25;0.69;86.09
71128;SHT30;59249;59.736;30.568;2023-02-02T04:51:56;0.67;86.10
71128;SHT30;59249;59.736;30.568;2023-02-02T04:54:35;0.72;86.09
71128;SHT30;59249;59.736;30.568;2023-02-02T04:57:07;0.69;85.95
71128;SHT30;59249;59.736;30.568;2023-02-02T04:59:38;0.69;86.15
71128;SHT30;59249;59.736;30.568;2023-02-02T05:02:24;0.70;86.10
71128;SHT30;59249;59.736;30.568;2023-02-02T05:04:57;0.71;86.12
71128;SHT30;59249;59.736;30.568;2023-02-02T05:07:31;0.77;86.21
71128;SHT30;59249;59.736;30.568;2023-02-02T05:10:15;0.67;85.98
71128;SHT30;59249;59.736;30.568;2023-02-02T05:12:57;0.81;86.04
71128;SHT30;59249;59.736;30.568;2023-02-02T05:15:27;0.72;86.07
71128;SHT30;59249;59.736;30.568;2023-02-02T05:17:56;0.69;86.08
71128;SHT30;59249;59.736;30.568;2023-02-02T05:20:25;0.71;86.11
71128;SHT30;59249;59.736;30.568;2023-02-02T05:22:54;0.75;86.14
71128;SHT30;59249;59.736;30.568;2023-02-02T05:25:24;0.69;86.25
71128;SHT30;59249;59.736;30.568;2023-02-02T05:27:53;0.72;86.15
71128;SHT30;59249;59.736;30.568;2023-02-02T05:30:21;0.69;85.99
71128;SHT30;59249;59.736;30.568;2023-02-02T05:32:50;0.72;86.04
71128;SHT30;59249;59.736;30.568;2023-02-02T05:35:19;0.79;86.03
71128;SHT30;59249;59.736;30.568;2023-02-02T05:37:48;0.66;86.06
71128;SHT30;59249;59.736;30.568;2023-02-02T05:40:17;0.64;86.05
71128;SHT30;59249;59.736;30.568;2023-02-02T05:42:48;0.64;86.21
71128;SHT30;59249;59.736;30.568;2023-02-02T05:45:17;0.77;85.96
71128;SHT30;59249;59.736;30.568;2023-02-02T05:47:45;0.67;85.94
71128;SHT30;59249;59.736;30.568;2023-02-02T05:50:17;0.62;86.05
71128;SHT30;59249;59.736;30.568;2023-02-02T05:52:49;0.60;86.18
71128;SHT30;59249;59.736;30.568;2023-02-02T05:55:18;0.60;86.40
71128;SHT30;59249;59.736;30.568;2023-02-02T05:57:52;0.62;86.28
71128;SHT30;59249;59.736;30.568;2023-02-02T06:00:30;0.66;86.29
71128;SHT30;59249;59.736;30.568;2023-02-02T06:03:00;0.63;86.34
71128;SHT30;59249;59.736;30.568;2023-02-02T06:05:32;0.66;86.32
71128;SHT30;59249;59.736;30.568;2023-02-02T06:08:04;0.64;86.28
71128;SHT30;59249;59.736;30.568;2023-02-02T06:10:33;0.66;86.41
71128;SHT30;59249;59.736;30.568;2023-02-02T06:13:09;0.64;86.52
71128;SHT30;59249;59.736;30.568;2023-02-02T06:15:45;0.73;86.48
71128;SHT30;59249;59.736;30.568;2023-02-02T06:18:17;0.76;86.44
71128;SHT30;59249;59.736;30.568;2023-02-02T06:21:02;0.72;86.38
71128;SHT30;59249;59.736;30.568;2023-02-02T06:23:45;0.73;86.31
71128;SHT30;59249;59.736;30.568;2023-02-02T06:26:15;0.79;86.46
71128;SHT30;59249;59.736;30.568;2023-02-02T06:28:57;0.69;86.40
71128;SHT30;59249;59.736;30.568;2023-02-02T06:31:29;0.69;86.51
71128;SHT30;59249;59.736;30.568;2023-02-02T06:34:11;0.72;86.50
71128;SHT30;59249;59.736;30.568;2023-02-02T06:36:57;0.70;86.51
71128;SHT30;59249;59.736;30.568;2023-02-02T06:39:41;0.74;86.71
71128;SHT30;59249;59.736;30.568;2023-02-02T06:42:15;0.73;86.80
71128;SHT30;59249;59.736;30.568;2023-02-02T06:45:06;0.67;86.72
71128;SHT30;59249;59.736;30.568;2023-02-02T06:47:36;0.69;86.75
71128;SHT30;59249;59.736;30.568;2023-02-02T06:50:05;0.83;86.86
71128;SHT30;59249;59.736;30.568;2023-02-02T06:52:34;0.72;86.83
71128;SHT30;59249;59.736;30.568;2023-02-02T06:55:05;0.76;86.74
71128;SHT30;59249;59.736;30.568;2023-02-02T06:57:34;0.87;86.74
71128;SHT30;59249;59.736;30.568;2023-02-02T07:00:05;0.81;86.80
71128;SHT30;59249;59.736;30.568;2023-02-02T07:02:34;0.92;86.78
71128;SHT30;59249;59.736;30.568;2023-02-02T07:05:04;1.03;86.63
71128;SHT30;59249;59.736;30.568;2023-02-02T07:07:34;1.14;86.47
71128;SHT30;59249;59.736;30.568;2023-02-02T07:10:03;1.20;86.35
71128;SHT30;59249;59.736;30.568;2023-02-02T07:12:33;1.19;86.12
71128;SHT30;59249;59.736;30.568;2023-02-02T07:15:04;1.10;85.90
71128;SHT30;59249;59.736;30.568;2023-02-02T07:17:33;1.06;85.86
71128;SHT30;59249;59.736;30.568;2023-02-02T07:20:02;1.19;86.09
71128;SHT30;59249;59.736;30.568;2023-02-02T07:22:31;1.30;85.95
71128;SHT30;59249;59.736;30.568;2023-02-02T07:25:03;1.28;85.72
71128;SHT30;59249;59.736;30.568;2023-02-02T07:27:32;1.16;85.61
71128;SHT30;59249;59.736;30.568;2023-02-02T07:30:01;1.30;85.74
71128;SHT30;59249;59.736;30.568;2023-02-02T07:32:31;1.17;85.67
71128;SHT30;59249;59.736;30.568;2023-02-02T07:35:00;1.23;85.69
71128;SHT30;59249;59.736;30.568;2023-02-02T07:37:29;1.21;85.66
71128;SHT30;59249;59.736;30.568;2023-02-02T07:39:58;1.27;85.51
71128;SHT30;59249;59.736;30.568;2023-02-02T07:42:26;1.25;85.67
71128;SHT30;59249;59.736;30.568;2023-02-02T07:44:55;1.32;85.49
71128;SHT30;59249;59.736;30.568;2023-02-02T07:47:24;1.44;85.35
71128;SHT30;59249;59.736;30.568;2023-02-02T07:49:54;1.46;84.98
71128;SHT30;59249;59.736;30.568;2023-02-02T07:52:23;1.44;84.75
71128;SHT30;59249;59.736;30.568;2023-02-02T07:54:51;1.34;84.68
71128;SHT30;59249;59.736;30.568;2023-02-02T07:57:38;1.52;84.53
71128;SHT30;59249;59.736;30.568;2023-02-02T08:00:09;1.47;84.66
71128;SHT30;59249;59.736;30.568;2023-02-02T08:02:41;1.51;84.71
71128;SHT30;59249;59.736;30.568;2023-02-02T08:05:11;1.63;84.53
71128;SHT30;59249;59.736;30.568;2023-02-02T08:07:40;1.55;84.56
71128;SHT30;59249;59.736;30.568;2023-02-02T08:10:10;1.64;84.32
71128;SHT30;59249;59.736;30.568;2023-02-02T08:12:39;1.78;84.35
71128;SHT30;59249;59.736;30.568;2023-02-02T08:15:09;1.83;84.35
71128;SHT30;59249;59.736;30.568;2023-02-02T08:17:38;1.73;84.05
71128;SHT30;59249;59.736;30.568;2023-02-02T08:20:09;1.74;84.17
71128;SHT30;59249;59.736;30.568;2023-02-02T08:22:40;1.82;84.10
71128;SHT30;59249;59.736;30.568;2023-02-02T08:25:09;1.78;83.81
71128;SHT30;59249;59.736;30.568;2023-02-02T08:27:38;2.00;83.87
71128;SHT30;59249;59.736;30.568;2023-02-02T08:30:09;2.03;83.56
71128;SHT30;59249;59.736;30.568;2023-02-02T08:32:37;1.98;83.42
71128;SHT30;59249;59.736;30.568;2023-02-02T08:35:07;2.10;83.42
71128;SHT30;59249;59.736;30.568;2023-02-02T08:37:36;2.18;83.46
71128;SHT30;59249;59.736;30.568;2023-02-02T08:40:08;2.20;83.04
71128;SHT30;59249;59.736;30.568;2023-02-02T08:42:39;2.28;82.77
71128;SHT30;59249;59.736;30.568;2023-02-02T08:45:08;2.25;82.93
71128;SHT30;59249;59.736;30.568;2023-02-02T08:47:56;2.19;82.79
71128;SHT30;59249;59.736;30.568;2023-02-02T08:50:38;2.14;82.73
71128;SHT30;59249;59.736;30.568;2023-02-02T08:53:07;2.17;82.78
71128;SHT30;59249;59.736;30.568;2023-02-02T08:55:38;2.20;83.08
71128;SHT30;59249;59.736;30.568;2023-02-02T08:58:06;2.11;82.91
71128;SHT30;59249;59.736;30.568;2023-02-02T09:00:36;2.32;83.05
71128;SHT30;59249;59.736;30.568;2023-02-02T09:03:05;2.31;82.80
71128;SHT30;59249;59.736;30.568;2023-02-02T09:05:42;2.40;82.79
71128;SHT30;59249;59.736;30.568;2023-02-02T09:08:11;2.39;82.53
71128;SHT30;59249;59.736;30.568;2023-02-02T09:10:41;2.28;82.43
71128;SHT30;59249;59.736;30.568;2023-02-02T09:13:10;2.47;82.52
71128;SHT30;59249;59.736;30.568;2023-02-02T09:15:39;2.33;81.93
71128;SHT30;59249;59.736;30.568;2023-02-02T09:18:12;2.29;82.17
71128;SHT30;59249;59.736;30.568;2023-02-02T09:20:41;2.30;82.39
71128;SHT30;59249;59.736;30.568;2023-02-02T09:23:11;2.34;82.54
71128;SHT30;59249;59.736;30.568;2023-02-02T09:25:43;2.28;82.18
71128;SHT30;59249;59.736;30.568;2023-02-02T09:28:12;2.30;82.38
71128;SHT30;59249;59.736;30.568;2023-02-02T09:30:41;2.28;82.45
71128;SHT30;59249;59.736;30.568;2023-02-02T09:33:15;2.48;82.22
71128;SHT30;59249;59.736;30.568;2023-02-02T09:35:44;2.46;82.10
71128;SHT30;59249;59.736;30.568;2023-02-02T09:38:17;2.50;82.33
71128;SHT30;59249;59.736;30.568;2023-02-02T09:40:47;2.73;82.20
71128;SHT30;59249;59.736;30.568;2023-02-02T09:43:41;2.65;81.53
71128;SHT30;59249;59.736;30.568;2023-02-02T09:46:34;2.63;81.64
71128;SHT30;59249;59.736;30.568;2023-02-02T09:49:10;2.67;81.59
71128;SHT30;59249;59.736;30.568;2023-02-02T09:51:45;2.66;81.71
71128;SHT30;59249;59.736;30.568;2023-02-02T09:54:20;2.69;81.65
71128;SHT30;59249;59.736;30.568;2023-02-02T09:56:54;2.58;81.84
71128;SHT30;59249;59.736;30.568;2023-02-02T09:59:30;2.68;81.51
71128;SHT30;59249;59.736;30.568;2023-02-02T10:02:13;2.68;81.84
71128;SHT30;59249;59.736;30.568;2023-02-02T10:04:50;2.68;81.79
71128;SHT30;59249;59.736;30.568;2023-02-02T10:07:30;2.70;81.17
71128;SHT30;59249;59.736;30.568;2023-02-02T10:10:03;2.71;80.69
71128;SHT30;59249;59.736;30.568;2023-02-02T10:12:43;2.67;81.14
71128;SHT30;59249;59.736;30.568;2023-02-02T10:15:21;2.71;80.75
71128;SHT30;59249;59.736;30.568;2023-02-02T10:17:59;2.71;81.17
71128;SHT30;59249;59.736;30.568;2023-02-02T10:20:41;2.68;81.24
71128;SHT30;59249;59.736;30.568;2023-02-02T10:23:22;2.74;81.01
71128;SHT30;59249;59.736;30.568;2023-02-02T10:25:59;2.52;81.02
71128;SHT30;59249;59.736;30.568;2023-02-02T10:28:47;2.70;80.92
71128;SHT30;59249;59.736;30.568;2023-02-02T10:31:43;2.55;80.79
71128;SHT30;59249;59.736;30.568;2023-02-02T10:34:24;2.58;81.08
71128;SHT30;59249;59.736;30.568;2023-02-02T10:37:19;2.57;80.86
71128;SHT30;59249;59.736;30.568;2023-02-02T10:40:08;2.36;80.61
71128;SHT30;59249;59.736;30.568;2023-02-02T10:43:06;2.48;81.23
71128;SHT30;59249;59.736;30.568;2023-02-02T10:45:55;2.41;81.12
71128;SHT30;59249;59.736;30.568;2023-02-02T10:48:30;2.52;81.13
71128;SHT30;59249;59.736;30.568;2023-02-02T10:51:11;2.54;80.79
71128;SHT30;59249;59.736;30.568;2023-02-02T10:53:51;2.49;81.10
71128;SHT30;59249;59.736;30.568;2023-02-02T10:56:25;2.48;80.88
71128;SHT30;59249;59.736;30.568;2023-02-02T10:59:05;2.50;80.67
71128;SHT30;59249;59.736;30.568;2023-02-02T11:01:36;2.53;81.68
71128;SHT30;59249;59.736;30.568;2023-02-02T11:04:05;2.50;81.01
71128;SHT30;59249;59.736;30.568;2023-02-02T11:06:51;2.53;81.46
71128;SHT30;59249;59.736;30.568;2023-02-02T11:09:25;2.62;81.07
71128;SHT30;59249;59.736;30.568;2023-02-02T11:12:02;2.71;80.94
71128;SHT30;59249;59.736;30.568;2023-02-02T11:14:43;2.60;80.81
71128;SHT30;59249;59.736;30.568;2023-02-02T11:17:20;2.56;80.97
71128;SHT30;59249;59.736;30.568;2023-02-02T11:19:53;2.53;80.84
71128;SHT30;59249;59.736;30.568;2023-02-02T11:22:34;2.44;81.40
71128;SHT30;59249;59.736;30.568;2023-02-02T11:25:20;2.42;80.88
71128;SHT30;59249;59.736;30.568;2023-02-02T11:27:50;2.34;80.96
71128;SHT30;59249;59.736;30.568;2023-02-02T11:30:26;2.37;81.32
71128;SHT30;59249;59.736;30.568;2023-02-02T11:32:59;2.30;81.43
71128;SHT30;59249;59.736;30.568;2023-02-02T11:35:54;2.38;81.16
71128;SHT30;59249;59.736;30.568;2023-02-02T11:38:23;2.15;80.85
71128;SHT30;59249;59.736;30.568;2023-02-02T11:40:55;2.18;81.30
71128;SHT30;59249;59.736;30.568;2023-02-02T11:43:28;2.21;81.42
71128;SHT30;59249;59.736;30.568;2023-02-02T11:46:01;2.11;81.70
71128;SHT30;59249;59.736;30.568;2023-02-02T11:48:35;2.22;81.48
71128;SHT30;59249;59.736;30.568;2023-02-02T11:51:07;2.25;81.48
71128;SHT30;59249;59.736;30.568;2023-02-02T11:54:02;2.28;81.35
71128;SHT30;59249;59.736;30.568;2023-02-02T11:56:35;2.26;81.63
71128;SHT30;59249;59.736;30.568;2023-02-02T11:59:04;2.31;81.53
71128;SHT30;59249;59.736;30.568;2023-02-02T12:01:36;2.16;81.13
71128;SHT30;59249;59.736;30.568;2023-02-02T12:04:24;2.11;81.26
71128;SHT30;59249;59.736;30.568;2023-02-02T12:06:54;2.21;81.53
71128;SHT30;59249;59.736;30.568;2023-02-02T12:09:24;2.15;81.29
71128;SHT30;59249;59.736;30.568;2023-02-02T12:12:04;2.05;81.35
71128;SHT30;59249;59.736;30.568;2023-02-02T12:14:46;2.03;81.36
71128;SHT30;59249;59.736;30.568;2023-02-02T12:17:32;1.90;81.28
71128;SHT30;59249;59.736;30.568;2023-02-02T12:20:19;1.98;81.70
71128;SHT30;59249;59.736;30.568;2023-02-02T12:23:09;1.85;81.52
71128;SHT30;59249;59.736;30.568;2023-02-02T12:26:08;1.83;82.07
71128;SHT30;59249;59.736;30.568;2023-02-02T12:29:17;1.77;82.23
71128;SHT30;59249;59.736;30.568;2023-02-02T12:32:08;1.80;82.45
71128;SHT30;59249;59.736;30.568;2023-02-02T12:34:53;1.78;82.04
71128;SHT30;59249;59.736;30.568;2023-02-02T12:37:45;1.89;81.84
71128;SHT30;59249;59.736;30.568;2023-02-02T12:40:36;1.92;81.52
71128;SHT30;59249;59.736;30.568;2023-02-02T12:43:26;1.97;81.81
71128;SHT30;59249;59.736;30.568;2023-02-02T12:46:20;1.95;81.70
71128;SHT30;59249;59.736;30.568;2023-02-02T12:49:12;1.85;81.34
71128;SHT30;59249;59.736;30.568;2023-02-02T12:52:06;1.87;81.77
71128;SHT30;59249;59.736;30.568;2023-02-02T12:55:09;1.73;82.06
71128;SHT30;59249;59.736;30.568;2023-02-02T12:57:53;1.60;82.22
71128;SHT30;59249;59.736;30.568;2023-02-02T13:01:00;1.64;82.28
71128;SHT30;59249;59.736;30.568;2023-02-02T13:09:51;1.67;82.17
71128;SHT30;59249;59.736;30.568;2023-02-02T13:12:29;1.68;82.04
71128;SHT30;59249;59.736;30.568;2023-02-02T13:15:04;1.61;81.91
71128;SHT30;59249;59.736;30.568;2023-02-02T13:17:40;1.54;82.19
71128;SHT30;59249;59.736;30.568;2023-02-02T13:20:22;1.52;82.27
71128;SHT30;59249;59.736;30.568;2023-02-02T13:22:59;1.41;82.11
71128;SHT30;59249;59.736;30.568;2023-02-02T13:25:34;1.63;82.08
71128;SHT30;59249;59.736;30.568;2023-02-02T13:28:17;1.48;82.13
71128;SHT30;59249;59.736;30.568;2023-02-02T13:30:49;1.59;82.07
71128;SHT30;59249;59.736;30.568;2023-02-02T13:33:26;1.66;81.88
71128;SHT30;59249;59.736;30.568;2023-02-02T13:36:03;1.67;81.76
71128;SHT30;59249;59.736;30.568;2023-02-02T13:38:33;1.54;81.79
71128;SHT30;59249;59.736;30.568;2023-02-02T13:41:10;1.63;81.79
71128;SHT30;59249;59.736;30.568;2023-02-02T13:43:53;1.54;81.63
71128;SHT30;59249;59.736;30.568;2023-02-02T13:46:33;1.53;81.63
71128;SHT30;59249;59.736;30.568;2023-02-02T13:49:13;1.42;81.66
71128;SHT30;59249;59.736;30.568;2023-02-02T13:51:59;1.28;81.99
71128;SHT30;59249;59.736;30.568;2023-02-02T13:55:32;1.27;82.49
71128;SHT30;59249;59.736;30.568;2023-02-02T13:58:40;1.28;82.55
71128;SHT30;59249;59.736;30.568;2023-02-02T14:01:13;1.32;82.25
71128;SHT30;59249;59.736;30.568;2023-02-02T14:03:50;1.44;82.10
71128;SHT30;59249;59.736;30.568;2023-02-02T14:06:22;1.37;81.93
71128;SHT30;59249;59.736;30.568;2023-02-02T14:08:55;1.32;82.43
71128;SHT30;59249;59.736;30.568;2023-02-02T14:11:29;1.31;82.04
71128;SHT30;59249;59.736;30.568;2023-02-02T14:14:08;1.36;81.87
71128;SHT30;59249;59.736;30.568;2023-02-02T14:16:57;1.27;82.49
71128;SHT30;59249;59.736;30.568;2023-02-02T14:19:55;1.32;82.51
71128;SHT30;59249;59.736;30.568;2023-02-02T14:22:43;1.27;82.51
71128;SHT30;59249;59.736;30.568;2023-02-02T14:26:04;1.27;82.39
71128;SHT30;59249;59.736;30.568;2023-02-02T14:28:48;1.30;82.48
71128;SHT30;59249;59.736;30.568;2023-02-02T14:31:51;1.34;82.69
71128;SHT30;59249;59.736;30.568;2023-02-02T14:34:34;1.32;82.27
71128;SHT30;59249;59.736;30.568;2023-02-02T14:37:45;1.29;82.45
71128;SHT30;59249;59.736;30.568;2023-02-02T14:40:42;1.32;82.54
71128;SHT30;59249;59.736;30.568;2023-02-02T14:43:28;1.32;82.56
71128;SHT30;59249;59.736;30.568;2023-02-02T14:46:31;1.42;82.13
71128;SHT30;59249;59.736;30.568;2023-02-02T14:49:33;1.32;82.42
71128;SHT30;59249;59.736;30.568;2023-02-02T14:52:03;1.20;82.34
71128;SHT30;59249;59.736;30.568;2023-02-02T14:54:39;1.08;82.70
71128;SHT30;59249;59.736;30.568;2023-02-02T14:57:25;1.04;82.92
71128;SHT30;59249;59.736;30.568;2023-02-02T14:59:55;1.06;82.68
71128;SHT30;59249;59.736;30.568;2023-02-02T15:02:35;1.14;82.54
71128;SHT30;59249;59.736;30.568;2023-02-02T15:05:35;1.23;82.54
71128;SHT30;59249;59.736;30.568;2023-02-02T15:08:24;1.17;82.48
71128;SHT30;59249;59.736;30.568;2023-02-02T15:11:05;1.16;82.55
71128;SHT30;59249;59.736;30.568;2023-02-02T15:14:02;1.19;82.38
71128;SHT30;59249;59.736;30.568;2023-02-02T15:16:37;1.24;82.55
71128;SHT30;59249;59.736;30.568;2023-02-02T15:19:19;1.21;82.52
71128;SHT30;59249;59.736;30.568;2023-02-02T15:21:55;1.17;82.83
71128;SHT30;59249;59.736;30.568;2023-02-02T15:24:28;1.13;82.60
71128;SHT30;59249;59.736;30.568;2023-02-02T15:26:59;1.17;82.46
71128;SHT30;59249;59.736;30.568;2023-02-02T15:29:39;1.11;82.44
71128;SHT30;59249;59.736;30.568;2023-02-02T15:32:16;1.12;82.52
71128;SHT30;59249;59.736;30.568;2023-02-02T15:36:02;1.01;82.75
71128;SHT30;59249;59.736;30.568;2023-02-02T15:38:39;0.94;82.76
71128;SHT30;59249;59.736;30.568;2023-02-02T15:41:18;1.12;82.80
71128;SHT30;59249;59.736;30.568;2023-02-02T15:43:48;1.01;82.93
71128;SHT30;59249;59.736;30.568;2023-02-02T15:46:22;0.93;82.98
71128;SHT30;59249;59.736;30.568;2023-02-02T15:49:22;0.90;82.99
71128;SHT30;59249;59.736;30.568;2023-02-02T15:52:11;1.02;83.17
71128;SHT30;59249;59.736;30.568;2023-02-02T15:54:54;1.08;83.18
71128;SHT30;59249;59.736;30.568;2023-02-02T15:57:29;0.90;82.99
71128;SHT30;59249;59.736;30.568;2023-02-02T16:00:01;1.13;82.94
71128;SHT30;59249;59.736;30.568;2023-02-02T16:02:44;1.01;83.05
71128;SHT30;59249;59.736;30.568;2023-02-02T16:05:39;0.99;83.11
71128;SHT30;59249;59.736;30.568;2023-02-02T16:08:17;1.00;82.97
71128;SHT30;59249;59.736;30.568;2023-02-02T16:10:47;1.05;82.94
71128;SHT30;59249;59.736;30.568;2023-02-02T16:13:26;1.02;82.98
71128;SHT30;59249;59.736;30.568;2023-02-02T16:15:59;0.93;82.90
71128;SHT30;59249;59.736;30.568;2023-02-02T16:18:29;0.92;83.00
71128;SHT30;59249;59.736;30.568;2023-02-02T16:21:04;1.04;82.83
71128;SHT30;59249;59.736;30.568;2023-02-02T16:23:35;0.99;83.10
71128;SHT30;59249;59.736;30.568;2023-02-02T16:26:06;0.97;83.06
71128;SHT30;59249;59.736;30.568;2023-02-02T16:28:40;0.92;83.06
71128;SHT30;59249;59.736;30.568;2023-02-02T16:31:12;0.91;83.24
71128;SHT30;59249;59.736;30.568;2023-02-02T16:33:43;1.04;83.00
71128;SHT30;59249;59.736;30.568;2023-02-02T16:36:19;0.99;82.87